sensor_id;sensor_type;location;lat;lon;timestamp;temperature;humidity
3086;DHT22;52812;48.960;9.108;2024-03-08T00:01:09;3.40;99.90
3086;DHT22;52812;48.960;9.108;2024-03-08T00:03:35;3.40;99.90
3086;DHT22;52812;48.960;9.108;2024-03-08T00:06:01;3.30;99.90
3086;DHT22;52812;48.960;9.108;2024-03-08T00:08:27;3.30;99.90
3086;DHT22;52812;48.960;9.108;2024-03-08T00:10:52;3.20;99.90
3086;DHT22;52812;48.960;9.108;2024-03-08T00:13:18;3.20;99.90
3086;DHT22;52812;48.960;9.108;2024-03-08T00:15:43;3.20;99.90
3086;DHT22;52812;48.960;9.108;2024-03-08T00:18:09;3.20;99.90
3086;DHT22;52812;48.960;9.108;2024-03-08T00:20:37;3.20;99.90
3086;DHT22;52812;48.960;9.108;2024-03-08T00:23:02;3.10;99.90
3086;DHT22;52812;48.960;9.108;2024-03-08T00:25:28;3.10;99.90
3086;DHT22;52812;48.960;9.108;2024-03-08T00:27:54;3.10;99.90
3086;DHT22;52812;48.960;9.108;2024-03-08T00:30:23;3.20;99.90
3086;DHT22;52812;48.960;9.108;2024-03-08T00:32:50;3.20;99.90
3086;DHT22;52812;48.960;9.108;2024-03-08T00:35:16;3.20;99.90
3086;DHT22;52812;48.960;9.108;2024-03-08T00:37:41;3.20;99.90
3086;DHT22;52812;48.960;9.108;2024-03-08T00:40:08;3.20;99.90
3086;DHT22;52812;48.960;9.108;2024-03-08T00:42:34;3.10;99.90
3086;DHT22;52812;48.960;9.108;2024-03-08T00:45:00;3.10;99.90
3086;DHT22;52812;48.960;9.108;2024-03-08T00:47:26;3.10;99.90
3086;DHT22;52812;48.960;9.108;2024-03-08T00:49:52;3.00;99.90
3086;DHT22;52812;48.960;9.108;2024-03-08T00:52:18;3.00;99.90
3086;DHT22;52812;48.960;9.108;2024-03-08T00:54:44;3.00;99.90
3086;DHT22;52812;48.960;9.108;2024-03-08T00:57:10;3.00;99.90
3086;DHT22;52812;48.960;9.108;2024-03-08T00:59:38;3.00;99.90
3086;DHT22;52812;48.960;9.108;2024-03-08T01:02:03;2.90;99.90
3086;DHT22;52812;48.960;9.108;2024-03-08T01:04:29;2.90;99.90
3086;DHT22;52812;48.960;9.108;2024-03-08T01:06:56;2.90;99.90
3086;DHT22;52812;48.960;9.108;2024-03-08T01:09:25;2.80;99.90
3086;DHT22;52812;48.960;9.108;2024-03-08T01:11:53;2.80;99.90
3086;DHT22;52812;48.960;9.108;2024-03-08T01:14:20;2.80;99.90
3086;DHT22;52812;48.960;9.108;2024-03-08T01:16:48;2.80;99.90
3086;DHT22;52812;48.960;9.108;2024-03-08T01:19:14;2.70;99.90
3086;DHT22;52812;48.960;9.108;2024-03-08T01:21:41;2.70;99.90
3086;DHT22;52812;48.960;9.108;2024-03-08T01:24:06;2.60;99.90
3086;DHT22;52812;48.960;9.108;2024-03-08T01:26:32;2.60;99.90
3086;DHT22;52812;48.960;9.108;2024-03-08T01:29:03;2.60;99.90
3086;DHT22;52812;48.960;9.108;2024-03-08T01:31:29;2.50;99.90
3086;DHT22;52812;48.960;9.108;2024-03-08T01:33:56;2.40;99.90
3086;DHT22;52812;48.960;9.108;2024-03-08T01:36:21;2.40;99.90
3086;DHT22;52812;48.960;9.108;2024-03-08T01:38:47;2.40;99.90
3086;DHT22;52812;48.960;9.108;2024-03-08T01:41:12;2.30;99.90
3086;DHT22;52812;48.960;9.108;2024-03-08T01:43:38;2.30;99.90
3086;DHT22;52812;48.960;9.108;2024-03-08T01:46:05;2.30;99.90
3086;DHT22;52812;48.960;9.108;2024-03-08T01:48:31;2.20;99.90
3086;DHT22;52812;48.960;9.108;2024-03-08T01:50:57;2.20;99.90
3086;DHT22;52812;48.960;9.108;2024-03-08T01:53:24;2.20;99.90
3086;DHT22;52812;48.960;9.108;2024-03-08T01:55:56;2.20;99.90
3086;DHT22;52812;48.960;9.108;2024-03-08T01:58:22;2.20;99.90
3086;DHT22;52812;48.960;9.108;2024-03-08T02:00:49;2.10;99.90
3086;DHT22;52812;48.960;9.108;2024-03-08T02:03:17;2.10;99.90
3086;DHT22;52812;48.960;9.108;2024-03-08T02:05:43;2.00;99.90
3086;DHT22;52812;48.960;9.108;2024-03-08T02:08:09;2.00;99.90
3086;DHT22;52812;48.960;9.108;2024-03-08T02:10:44;1.90;99.90
3086;DHT22;52812;48.960;9.108;2024-03-08T02:13:10;1.90;99.90
3086;DHT22;52812;48.960;9.108;2024-03-08T02:15:53;1.90;99.90
3086;DHT22;52812;48.960;9.108;2024-03-08T02:18:19;1.80;99.90
3086;DHT22;52812;48.960;9.108;2024-03-08T02:21:06;1.70;99.90
3086;DHT22;52812;48.960;9.108;2024-03-08T02:23:33;1.70;99.90
3086;DHT22;52812;48.960;9.108;2024-03-08T02:25:59;1.70;99.90
3086;DHT22;52812;48.960;9.108;2024-03-08T02:28:25;1.60;99.90
3086;DHT22;52812;48.960;9.108;2024-03-08T02:30:51;1.50;99.90
3086;DHT22;52812;48.960;9.108;2024-03-08T02:33:20;1.40;99.90
3086;DHT22;52812;48.960;9.108;2024-03-08T02:35:46;1.30;99.90
3086;DHT22;52812;48.960;9.108;2024-03-08T02:38:16;1.20;99.90
3086;DHT22;52812;48.960;9.108;2024-03-08T02:40:43;1.30;99.90
3086;DHT22;52812;48.960;9.108;2024-03-08T02:43:09;1.30;99.90
3086;DHT22;52812;48.960;9.108;2024-03-08T02:45:35;1.40;99.90
3086;DHT22;52812;48.960;9.108;2024-03-08T02:48:01;1.40;99.90
3086;DHT22;52812;48.960;9.108;2024-03-08T02:50:27;1.40;99.90
3086;DHT22;52812;48.960;9.108;2024-03-08T02:52:52;1.30;99.90
3086;DHT22;52812;48.960;9.108;2024-03-08T02:55:18;1.40;99.90
3086;DHT22;52812;48.960;9.108;2024-03-08T02:57:44;1.40;99.90
3086;DHT22;52812;48.960;9.108;2024-03-08T03:00:10;1.30;99.90
3086;DHT22;52812;48.960;9.108;2024-03-08T03:02:36;1.20;99.90
3086;DHT22;52812;48.960;9.108;2024-03-08T03:05:03;1.20;99.90
3086;DHT22;52812;48.960;9.108;2024-03-08T03:07:32;1.20;99.90
3086;DHT22;52812;48.960;9.108;2024-03-08T03:09:59;1.20;99.90
3086;DHT22;52812;48.960;9.108;2024-03-08T03:12:30;1.20;99.90
3086;DHT22;52812;48.960;9.108;2024-03-08T03:14:56;1.20;99.90
3086;DHT22;52812;48.960;9.108;2024-03-08T03:17:25;1.20;99.90
3086;DHT22;52812;48.960;9.108;2024-03-08T03:19:52;1.10;99.90
3086;DHT22;52812;48.960;9.108;2024-03-08T03:22:18;1.10;99.90
3086;DHT22;52812;48.960;9.108;2024-03-08T03:24:47;1.10;99.90
3086;DHT22;52812;48.960;9.108;2024-03-08T03:27:13;1.10;99.90
3086;DHT22;52812;48.960;9.108;2024-03-08T03:29:41;1.10;99.90
3086;DHT22;52812;48.960;9.108;2024-03-08T03:32:13;1.10;99.90
3086;DHT22;52812;48.960;9.108;2024-03-08T03:34:42;1.10;99.90
3086;DHT22;52812;48.960;9.108;2024-03-08T03:37:09;1.00;99.90
3086;DHT22;52812;48.960;9.108;2024-03-08T03:39:38;1.00;99.90
3086;DHT22;52812;48.960;9.108;2024-03-08T03:42:19;1.00;99.90
3086;DHT22;52812;48.960;9.108;2024-03-08T03:44:48;0.90;99.90
3086;DHT22;52812;48.960;9.108;2024-03-08T03:47:14;1.00;99.90
3086;DHT22;52812;48.960;9.108;2024-03-08T03:49:43;1.00;99.90
3086;DHT22;52812;48.960;9.108;2024-03-08T03:52:10;1.00;99.90
3086;DHT22;52812;48.960;9.108;2024-03-08T03:54:36;1.00;99.90
3086;DHT22;52812;48.960;9.108;2024-03-08T03:57:02;1.10;99.90
3086;DHT22;52812;48.960;9.108;2024-03-08T03:59:28;1.10;99.90
3086;DHT22;52812;48.960;9.108;2024-03-08T04:01:54;1.00;99.90
3086;DHT22;52812;48.960;9.108;2024-03-08T04:04:23;1.00;99.90
3086;DHT22;52812;48.960;9.108;2024-03-08T04:06:50;1.00;99.90
3086;DHT22;52812;48.960;9.108;2024-03-08T04:09:16;1.00;99.90
3086;DHT22;52812;48.960;9.108;2024-03-08T04:11:44;1.10;99.90
3086;DHT22;52812;48.960;9.108;2024-03-08T04:14:10;1.10;99.90
3086;DHT22;52812;48.960;9.108;2024-03-08T04:16:36;1.10;99.90
3086;DHT22;52812;48.960;9.108;2024-03-08T04:19:02;1.10;99.90
3086;DHT22;52812;48.960;9.108;2024-03-08T04:21:32;1.10;99.90
3086;DHT22;52812;48.960;9.108;2024-03-08T04:23:58;1.10;99.90
3086;DHT22;52812;48.960;9.108;2024-03-08T04:26:23;1.10;99.90
3086;DHT22;52812;48.960;9.108;2024-03-08T04:28:49;1.20;99.90
3086;DHT22;52812;48.960;9.108;2024-03-08T04:31:15;1.20;99.90
3086;DHT22;52812;48.960;9.108;2024-03-08T04:33:41;1.20;99.90
3086;DHT22;52812;48.960;9.108;2024-03-08T04:36:07;1.20;99.90
3086;DHT22;52812;48.960;9.108;2024-03-08T04:38:33;1.20;99.90
3086;DHT22;52812;48.960;9.108;2024-03-08T04:40:59;1.10;99.90
3086;DHT22;52812;48.960;9.108;2024-03-08T04:43:26;1.10;99.90
3086;DHT22;52812;48.960;9.108;2024-03-08T04:45:52;1.20;99.90
3086;DHT22;52812;48.960;9.108;2024-03-08T04:48:19;1.20;99.90
3086;DHT22;52812;48.960;9.108;2024-03-08T04:50:45;1.20;99.90
3086;DHT22;52812;48.960;9.108;2024-03-08T04:53:11;1.20;99.90
3086;DHT22;52812;48.960;9.108;2024-03-08T04:55:40;1.20;99.90
3086;DHT22;52812;48.960;9.108;2024-03-08T04:58:05;1.20;99.90
3086;DHT22;52812;48.960;9.108;2024-03-08T05:00:32;1.20;99.90
3086;DHT22;52812;48.960;9.108;2024-03-08T05:02:58;1.30;99.90
3086;DHT22;52812;48.960;9.108;2024-03-08T05:05:24;1.20;99.90
3086;DHT22;52812;48.960;9.108;2024-03-08T05:07:50;1.30;99.90
3086;DHT22;52812;48.960;9.108;2024-03-08T05:10:16;1.20;99.90
3086;DHT22;52812;48.960;9.108;2024-03-08T05:12:43;1.20;99.90
3086;DHT22;52812;48.960;9.108;2024-03-08T05:15:09;1.20;99.90
3086;DHT22;52812;48.960;9.108;2024-03-08T05:17:34;1.20;99.90
3086;DHT22;52812;48.960;9.108;2024-03-08T05:20:00;1.20;99.90
3086;DHT22;52812;48.960;9.108;2024-03-08T05:22:26;1.20;99.90
3086;DHT22;52812;48.960;9.108;2024-03-08T05:24:51;1.30;99.90
3086;DHT22;52812;48.960;9.108;2024-03-08T05:27:17;1.20;99.90
3086;DHT22;52812;48.960;9.108;2024-03-08T05:29:43;1.20;99.90
3086;DHT22;52812;48.960;9.108;2024-03-08T05:32:08;1.20;99.90
3086;DHT22;52812;48.960;9.108;2024-03-08T05:34:35;1.20;99.90
3086;DHT22;52812;48.960;9.108;2024-03-08T05:37:02;1.20;99.90
3086;DHT22;52812;48.960;9.108;2024-03-08T05:39:27;1.20;99.90
3086;DHT22;52812;48.960;9.108;2024-03-08T05:41:53;1.20;99.90
3086;DHT22;52812;48.960;9.108;2024-03-08T05:44:20;1.20;99.90
3086;DHT22;52812;48.960;9.108;2024-03-08T05:46:46;1.20;99.90
3086;DHT22;52812;48.960;9.108;2024-03-08T05:49:12;1.20;99.90
3086;DHT22;52812;48.960;9.108;2024-03-08T05:51:39;1.20;99.90
3086;DHT22;52812;48.960;9.108;2024-03-08T05:54:11;1.20;99.90
3086;DHT22;52812;48.960;9.108;2024-03-08T05:56:40;1.20;99.90
3086;DHT22;52812;48.960;9.108;2024-03-08T05:59:10;1.30;99.90
3086;DHT22;52812;48.960;9.108;2024-03-08T06:01:36;1.30;99.90
3086;DHT22;52812;48.960;9.108;2024-03-08T06:04:02;1.30;99.90
3086;DHT22;52812;48.960;9.108;2024-03-08T06:06:28;1.30;99.90
3086;DHT22;52812;48.960;9.108;2024-03-08T06:08:55;1.30;99.90
3086;DHT22;52812;48.960;9.108;2024-03-08T06:11:22;1.30;99.90
3086;DHT22;52812;48.960;9.108;2024-03-08T06:13:48;1.30;99.90
3086;DHT22;52812;48.960;9.108;2024-03-08T06:16:14;1.30;99.90
3086;DHT22;52812;48.960;9.108;2024-03-08T06:18:39;1.30;99.90
3086;DHT22;52812;48.960;9.108;2024-03-08T06:21:05;1.40;99.90
3086;DHT22;52812;48.960;9.108;2024-03-08T06:23:35;1.40;99.90
3086;DHT22;52812;48.960;9.108;2024-03-08T06:26:07;1.40;99.90
3086;DHT22;52812;48.960;9.108;2024-03-08T06:28:33;1.50;99.90
3086;DHT22;52812;48.960;9.108;2024-03-08T06:31:00;1.50;99.90
3086;DHT22;52812;48.960;9.108;2024-03-08T06:33:26;1.60;99.90
3086;DHT22;52812;48.960;9.108;2024-03-08T06:35:55;1.70;99.90
3086;DHT22;52812;48.960;9.108;2024-03-08T06:38:26;1.80;99.90
3086;DHT22;52812;48.960;9.108;2024-03-08T06:40:52;1.80;99.90
3086;DHT22;52812;48.960;9.108;2024-03-08T06:43:20;2.00;99.90
3086;DHT22;52812;48.960;9.108;2024-03-08T06:45:45;2.20;99.90
3086;DHT22;52812;48.960;9.108;2024-03-08T06:48:17;2.20;99.90
3086;DHT22;52812;48.960;9.108;2024-03-08T06:50:46;2.20;99.90
3086;DHT22;52812;48.960;9.108;2024-03-08T06:53:15;2.20;99.90
3086;DHT22;52812;48.960;9.108;2024-03-08T06:55:41;2.20;99.90
3086;DHT22;52812;48.960;9.108;2024-03-08T06:58:07;2.30;99.90
3086;DHT22;52812;48.960;9.108;2024-03-08T07:00:33;2.20;99.90
3086;DHT22;52812;48.960;9.108;2024-03-08T07:02:59;2.40;99.90
3086;DHT22;52812;48.960;9.108;2024-03-08T07:05:30;2.50;99.90
3086;DHT22;52812;48.960;9.108;2024-03-08T07:07:56;2.50;99.90
3086;DHT22;52812;48.960;9.108;2024-03-08T07:10:22;2.40;99.90
3086;DHT22;52812;48.960;9.108;2024-03-08T07:12:50;2.50;99.90
3086;DHT22;52812;48.960;9.108;2024-03-08T07:15:16;2.90;99.90
3086;DHT22;52812;48.960;9.108;2024-03-08T07:17:45;3.00;99.90
3086;DHT22;52812;48.960;9.108;2024-03-08T07:20:11;3.00;99.90
3086;DHT22;52812;48.960;9.108;2024-03-08T07:22:38;3.00;99.90
3086;DHT22;52812;48.960;9.108;2024-03-08T07:25:08;3.00;99.90
3086;DHT22;52812;48.960;9.108;2024-03-08T07:27:34;3.10;99.90
3086;DHT22;52812;48.960;9.108;2024-03-08T07:30:04;3.20;99.90
3086;DHT22;52812;48.960;9.108;2024-03-08T07:32:30;3.30;99.90
3086;DHT22;52812;48.960;9.108;2024-03-08T07:34:57;3.20;99.90
3086;DHT22;52812;48.960;9.108;2024-03-08T07:37:23;3.10;99.90
3086;DHT22;52812;48.960;9.108;2024-03-08T07:39:49;3.20;99.90
3086;DHT22;52812;48.960;9.108;2024-03-08T07:42:15;3.20;99.90
3086;DHT22;52812;48.960;9.108;2024-03-08T07:44:42;3.40;99.90
3086;DHT22;52812;48.960;9.108;2024-03-08T07:47:08;3.50;99.90
3086;DHT22;52812;48.960;9.108;2024-03-08T07:49:38;3.50;99.90
3086;DHT22;52812;48.960;9.108;2024-03-08T07:52:04;3.60;99.90
3086;DHT22;52812;48.960;9.108;2024-03-08T07:54:30;3.60;99.90
3086;DHT22;52812;48.960;9.108;2024-03-08T07:56:56;3.60;99.90
3086;DHT22;52812;48.960;9.108;2024-03-08T07:59:22;3.60;99.90
3086;DHT22;52812;48.960;9.108;2024-03-08T08:01:47;3.80;99.90
3086;DHT22;52812;48.960;9.108;2024-03-08T08:04:13;3.80;99.90
3086;DHT22;52812;48.960;9.108;2024-03-08T08:06:40;3.70;99.90
3086;DHT22;52812;48.960;9.108;2024-03-08T08:09:09;3.80;99.90
3086;DHT22;52812;48.960;9.108;2024-03-08T08:11:41;3.80;99.90
3086;DHT22;52812;48.960;9.108;2024-03-08T08:14:09;3.80;99.90
3086;DHT22;52812;48.960;9.108;2024-03-08T08:16:35;3.80;99.90
3086;DHT22;52812;48.960;9.108;2024-03-08T08:19:06;3.80;99.90
3086;DHT22;52812;48.960;9.108;2024-03-08T08:21:36;3.80;99.90
3086;DHT22;52812;48.960;9.108;2024-03-08T08:24:03;3.90;99.90
3086;DHT22;52812;48.960;9.108;2024-03-08T08:26:29;4.00;99.90
3086;DHT22;52812;48.960;9.108;2024-03-08T08:28:56;4.10;99.90
3086;DHT22;52812;48.960;9.108;2024-03-08T08:31:22;4.10;99.90
3086;DHT22;52812;48.960;9.108;2024-03-08T08:33:48;4.30;99.90
3086;DHT22;52812;48.960;9.108;2024-03-08T08:36:14;4.30;99.90
3086;DHT22;52812;48.960;9.108;2024-03-08T08:38:40;4.40;99.90
3086;DHT22;52812;48.960;9.108;2024-03-08T08:41:09;4.40;99.90
3086;DHT22;52812;48.960;9.108;2024-03-08T08:43:36;4.30;99.90
3086;DHT22;52812;48.960;9.108;2024-03-08T08:46:02;4.30;99.90
3086;DHT22;52812;48.960;9.108;2024-03-08T08:48:28;4.30;99.90
3086;DHT22;52812;48.960;9.108;2024-03-08T08:50:55;4.20;99.90
3086;DHT22;52812;48.960;9.108;2024-03-08T08:53:20;4.20;99.90
3086;DHT22;52812;48.960;9.108;2024-03-08T08:55:47;4.30;99.90
3086;DHT22;52812;48.960;9.108;2024-03-08T08:58:13;4.40;99.90
3086;DHT22;52812;48.960;9.108;2024-03-08T09:00:39;4.40;99.90
3086;DHT22;52812;48.960;9.108;2024-03-08T09:03:05;4.40;99.90
3086;DHT22;52812;48.960;9.108;2024-03-08T09:05:32;4.50;99.90
3086;DHT22;52812;48.960;9.108;2024-03-08T09:07:59;4.50;99.90
3086;DHT22;52812;48.960;9.108;2024-03-08T09:10:26;4.40;99.90
3086;DHT22;52812;48.960;9.108;2024-03-08T09:12:53;4.40;99.90
3086;DHT22;52812;48.960;9.108;2024-03-08T09:15:19;4.40;99.90
3086;DHT22;52812;48.960;9.108;2024-03-08T09:17:46;4.60;99.90
3086;DHT22;52812;48.960;9.108;2024-03-08T09:20:12;4.50;99.90
3086;DHT22;52812;48.960;9.108;2024-03-08T09:22:44;4.60;99.90
3086;DHT22;52812;48.960;9.108;2024-03-08T09:25:10;4.60;99.90
3086;DHT22;52812;48.960;9.108;2024-03-08T09:27:35;4.70;99.90
3086;DHT22;52812;48.960;9.108;2024-03-08T09:30:01;4.80;99.90
3086;DHT22;52812;48.960;9.108;2024-03-08T09:32:27;4.70;99.90
3086;DHT22;52812;48.960;9.108;2024-03-08T09:34:52;4.80;99.90
3086;DHT22;52812;48.960;9.108;2024-03-08T09:37:18;4.80;99.90
3086;DHT22;52812;48.960;9.108;2024-03-08T09:39:44;4.90;99.90
3086;DHT22;52812;48.960;9.108;2024-03-08T09:42:10;4.80;99.90
3086;DHT22;52812;48.960;9.108;2024-03-08T09:44:46;4.80;99.90
3086;DHT22;52812;48.960;9.108;2024-03-08T09:47:15;4.90;99.90
3086;DHT22;52812;48.960;9.108;2024-03-08T09:49:42;5.00;99.90
3086;DHT22;52812;48.960;9.108;2024-03-08T09:52:08;5.00;99.90
3086;DHT22;52812;48.960;9.108;2024-03-08T09:54:35;5.00;99.90
3086;DHT22;52812;48.960;9.108;2024-03-08T09:57:04;5.10;99.90
3086;DHT22;52812;48.960;9.108;2024-03-08T09:59:30;5.10;99.90
3086;DHT22;52812;48.960;9.108;2024-03-08T10:02:15;5.10;99.90
3086;DHT22;52812;48.960;9.108;2024-03-08T10:04:41;5.10;99.90
3086;DHT22;52812;48.960;9.108;2024-03-08T10:07:12;5.10;99.90
3086;DHT22;52812;48.960;9.108;2024-03-08T10:09:38;5.20;99.90
3086;DHT22;52812;48.960;9.108;2024-03-08T10:12:04;5.20;99.90
3086;DHT22;52812;48.960;9.108;2024-03-08T10:14:30;5.20;99.90
3086;DHT22;52812;48.960;9.108;2024-03-08T10:16:57;5.10;99.90
3086;DHT22;52812;48.960;9.108;2024-03-08T10:19:26;5.20;99.90
3086;DHT22;52812;48.960;9.108;2024-03-08T10:21:52;5.40;99.90
3086;DHT22;52812;48.960;9.108;2024-03-08T10:24:23;5.40;99.90
3086;DHT22;52812;48.960;9.108;2024-03-08T10:26:59;5.50;99.90
3086;DHT22;52812;48.960;9.108;2024-03-08T10:29:25;5.60;99.90
3086;DHT22;52812;48.960;9.108;2024-03-08T10:31:51;5.60;99.90
3086;DHT22;52812;48.960;9.108;2024-03-08T10:34:17;5.60;99.90
3086;DHT22;52812;48.960;9.108;2024-03-08T10:36:44;5.50;99.90
3086;DHT22;52812;48.960;9.108;2024-03-08T10:39:22;5.50;99.90
3086;DHT22;52812;48.960;9.108;2024-03-08T10:41:58;5.70;99.90
3086;DHT22;52812;48.960;9.108;2024-03-08T10:47:11;6.00;99.90
3086;DHT22;52812;48.960;9.108;2024-03-08T10:50:04;6.00;99.90
3086;DHT22;52812;48.960;9.108;2024-03-08T10:52:34;6.30;99.90
3086;DHT22;52812;48.960;9.108;2024-03-08T10:55:01;6.30;99.90
3086;DHT22;52812;48.960;9.108;2024-03-08T10:57:27;6.60;99.90
3086;DHT22;52812;48.960;9.108;2024-03-08T10:59:55;6.80;99.90
3086;DHT22;52812;48.960;9.108;2024-03-08T11:02:20;6.80;99.90
3086;DHT22;52812;48.960;9.108;2024-03-08T11:04:50;7.00;99.90
3086;DHT22;52812;48.960;9.108;2024-03-08T11:07:16;7.00;99.90
3086;DHT22;52812;48.960;9.108;2024-03-08T11:09:47;6.90;99.90
3086;DHT22;52812;48.960;9.108;2024-03-08T11:12:27;6.90;99.90
3086;DHT22;52812;48.960;9.108;2024-03-08T11:15:02;6.90;99.90
3086;DHT22;52812;48.960;9.108;2024-03-08T11:17:40;7.00;99.90
3086;DHT22;52812;48.960;9.108;2024-03-08T11:20:12;7.10;99.90
3086;DHT22;52812;48.960;9.108;2024-03-08T11:22:49;7.30;99.90
3086;DHT22;52812;48.960;9.108;2024-03-08T11:25:49;7.40;99.90
3086;DHT22;52812;48.960;9.108;2024-03-08T11:28:21;7.50;99.90
3086;DHT22;52812;48.960;9.108;2024-03-08T11:33:24;7.40;99.90
3086;DHT22;52812;48.960;9.108;2024-03-08T11:35:52;7.50;99.90
3086;DHT22;52812;48.960;9.108;2024-03-08T11:38:17;7.30;99.90
3086;DHT22;52812;48.960;9.108;2024-03-08T11:40:46;7.20;99.90
3086;DHT22;52812;48.960;9.108;2024-03-08T11:43:16;7.30;99.90
3086;DHT22;52812;48.960;9.108;2024-03-08T11:45:41;7.60;99.90
3086;DHT22;52812;48.960;9.108;2024-03-08T11:48:07;7.50;99.90
3086;DHT22;52812;48.960;9.108;2024-03-08T11:50:34;7.60;99.90
3086;DHT22;52812;48.960;9.108;2024-03-08T11:53:03;7.70;99.90
3086;DHT22;52812;48.960;9.108;2024-03-08T11:55:34;7.70;99.90
3086;DHT22;52812;48.960;9.108;2024-03-08T11:58:02;7.80;99.90
3086;DHT22;52812;48.960;9.108;2024-03-08T12:00:28;7.90;99.90
3086;DHT22;52812;48.960;9.108;2024-03-08T12:03:08;7.70;99.90
3086;DHT22;52812;48.960;9.108;2024-03-08T12:05:37;7.40;99.90
3086;DHT22;52812;48.960;9.108;2024-03-08T12:08:03;7.20;99.90
3086;DHT22;52812;48.960;9.108;2024-03-08T12:10:33;7.20;99.90
3086;DHT22;52812;48.960;9.108;2024-03-08T12:13:00;7.20;99.90
3086;DHT22;52812;48.960;9.108;2024-03-08T12:15:28;7.30;99.90
3086;DHT22;52812;48.960;9.108;2024-03-08T12:17:54;7.40;99.90
3086;DHT22;52812;48.960;9.108;2024-03-08T12:20:25;7.40;99.90
3086;DHT22;52812;48.960;9.108;2024-03-08T12:22:53;7.60;99.90
3086;DHT22;52812;48.960;9.108;2024-03-08T12:25:20;7.60;99.90
3086;DHT22;52812;48.960;9.108;2024-03-08T12:27:46;7.50;99.90
3086;DHT22;52812;48.960;9.108;2024-03-08T12:30:22;7.50;99.90
3086;DHT22;52812;48.960;9.108;2024-03-08T12:32:56;7.60;99.90
3086;DHT22;52812;48.960;9.108;2024-03-08T12:35:24;7.60;99.90
3086;DHT22;52812;48.960;9.108;2024-03-08T12:37:52;7.60;99.90
3086;DHT22;52812;48.960;9.108;2024-03-08T12:40:19;7.60;99.90
3086;DHT22;52812;48.960;9.108;2024-03-08T12:42:46;7.80;99.90
3086;DHT22;52812;48.960;9.108;2024-03-08T12:45:14;7.80;99.90
3086;DHT22;52812;48.960;9.108;2024-03-08T12:47:39;8.10;99.90
3086;DHT22;52812;48.960;9.108;2024-03-08T12:50:08;8.20;99.90
3086;DHT22;52812;48.960;9.108;2024-03-08T12:52:34;8.10;99.90
3086;DHT22;52812;48.960;9.108;2024-03-08T12:55:00;7.90;99.90
3086;DHT22;52812;48.960;9.108;2024-03-08T12:57:35;8.00;99.90
3086;DHT22;52812;48.960;9.108;2024-03-08T13:00:03;8.10;99.90
3086;DHT22;52812;48.960;9.108;2024-03-08T13:02:30;8.10;99.90
3086;DHT22;52812;48.960;9.108;2024-03-08T13:04:57;8.10;99.90
3086;DHT22;52812;48.960;9.108;2024-03-08T13:07:24;8.10;99.90
3086;DHT22;52812;48.960;9.108;2024-03-08T13:09:55;8.20;99.90
3086;DHT22;52812;48.960;9.108;2024-03-08T13:12:23;8.20;99.90
3086;DHT22;52812;48.960;9.108;2024-03-08T13:14:49;8.30;99.90
3086;DHT22;52812;48.960;9.108;2024-03-08T13:17:15;8.40;99.90
3086;DHT22;52812;48.960;9.108;2024-03-08T13:19:41;8.50;99.90
3086;DHT22;52812;48.960;9.108;2024-03-08T13:22:09;8.60;99.90
3086;DHT22;52812;48.960;9.108;2024-03-08T13:24:39;8.70;99.90
3086;DHT22;52812;48.960;9.108;2024-03-08T13:27:07;8.50;99.90
3086;DHT22;52812;48.960;9.108;2024-03-08T13:29:42;8.60;99.90
3086;DHT22;52812;48.960;9.108;2024-03-08T13:32:08;8.80;99.90
3086;DHT22;52812;48.960;9.108;2024-03-08T13:34:40;8.90;99.90
3086;DHT22;52812;48.960;9.108;2024-03-08T13:37:06;8.90;99.90
3086;DHT22;52812;48.960;9.108;2024-03-08T13:39:31;8.90;99.90
3086;DHT22;52812;48.960;9.108;2024-03-08T13:42:07;8.90;99.90
3086;DHT22;52812;48.960;9.108;2024-03-08T13:44:35;8.90;99.90
3086;DHT22;52812;48.960;9.108;2024-03-08T13:47:02;8.90;99.90
3086;DHT22;52812;48.960;9.108;2024-03-08T13:49:30;9.00;99.90
3086;DHT22;52812;48.960;9.108;2024-03-08T13:51:56;9.00;99.90
3086;DHT22;52812;48.960;9.108;2024-03-08T13:54:24;9.00;99.90
3086;DHT22;52812;48.960;9.108;2024-03-08T13:56:50;9.20;99.90
3086;DHT22;52812;48.960;9.108;2024-03-08T13:59:19;9.20;99.90
3086;DHT22;52812;48.960;9.108;2024-03-08T14:01:51;9.10;99.90
3086;DHT22;52812;48.960;9.108;2024-03-08T14:04:16;9.10;99.90
3086;DHT22;52812;48.960;9.108;2024-03-08T14:06:45;9.20;99.90
3086;DHT22;52812;48.960;9.108;2024-03-08T14:09:11;9.10;99.90
3086;DHT22;52812;48.960;9.108;2024-03-08T14:11:46;9.10;99.90
3086;DHT22;52812;48.960;9.108;2024-03-08T14:14:11;9.10;99.90
3086;DHT22;52812;48.960;9.108;2024-03-08T14:16:40;9.10;99.90
3086;DHT22;52812;48.960;9.108;2024-03-08T14:19:06;9.20;99.90
3086;DHT22;52812;48.960;9.108;2024-03-08T14:21:32;9.20;99.90
3086;DHT22;52812;48.960;9.108;2024-03-08T14:23:58;9.20;99.90
3086;DHT22;52812;48.960;9.108;2024-03-08T14:26:24;9.30;99.90
3086;DHT22;52812;48.960;9.108;2024-03-08T14:28:50;9.30;99.90
3086;DHT22;52812;48.960;9.108;2024-03-08T14:31:20;9.30;99.90
3086;DHT22;52812;48.960;9.108;2024-03-08T14:33:49;9.20;99.90
3086;DHT22;52812;48.960;9.108;2024-03-08T14:36:15;9.20;99.90
3086;DHT22;52812;48.960;9.108;2024-03-08T14:38:47;9.20;99.90
3086;DHT22;52812;48.960;9.108;2024-03-08T14:41:13;9.30;99.90
3086;DHT22;52812;48.960;9.108;2024-03-08T14:43:42;9.30;99.90
3086;DHT22;52812;48.960;9.108;2024-03-08T14:46:10;9.30;99.90
3086;DHT22;52812;48.960;9.108;2024-03-08T14:48:39;9.30;99.90
3086;DHT22;52812;48.960;9.108;2024-03-08T14:51:06;9.40;99.90
3086;DHT22;52812;48.960;9.108;2024-03-08T14:53:35;9.30;99.90
3086;DHT22;52812;48.960;9.108;2024-03-08T14:56:01;9.30;99.90
3086;DHT22;52812;48.960;9.108;2024-03-08T14:58:27;9.30;99.90
3086;DHT22;52812;48.960;9.108;2024-03-08T15:00:53;9.30;99.90
3086;DHT22;52812;48.960;9.108;2024-03-08T15:03:21;9.30;99.90
3086;DHT22;52812;48.960;9.108;2024-03-08T15:05:50;9.40;99.90
3086;DHT22;52812;48.960;9.108;2024-03-08T15:08:16;9.40;99.90
3086;DHT22;52812;48.960;9.108;2024-03-08T15:10:49;9.50;99.90
3086;DHT22;52812;48.960;9.108;2024-03-08T15:13:24;9.50;99.90
3086;DHT22;52812;48.960;9.108;2024-03-08T15:15:59;9.40;99.90
3086;DHT22;52812;48.960;9.108;2024-03-08T15:18:25;9.30;99.90
3086;DHT22;52812;48.960;9.108;2024-03-08T15:20:55;9.30;99.90
3086;DHT22;52812;48.960;9.108;2024-03-08T15:23:20;9.40;99.90
3086;DHT22;52812;48.960;9.108;2024-03-08T15:25:49;9.40;99.90
3086;DHT22;52812;48.960;9.108;2024-03-08T15:28:16;9.40;99.90
3086;DHT22;52812;48.960;9.108;2024-03-08T15:30:45;9.40;99.90
3086;DHT22;52812;48.960;9.108;2024-03-08T15:33:15;9.50;99.90
3086;DHT22;52812;48.960;9.108;2024-03-08T15:35:50;9.50;99.90
3086;DHT22;52812;48.960;9.108;2024-03-08T15:38:23;9.60;99.90
3086;DHT22;52812;48.960;9.108;2024-03-08T15:40:49;9.50;99.90
3086;DHT22;52812;48.960;9.108;2024-03-08T15:43:16;9.50;99.90
3086;DHT22;52812;48.960;9.108;2024-03-08T15:45:45;9.50;99.90
3086;DHT22;52812;48.960;9.108;2024-03-08T15:48:12;9.50;99.90
3086;DHT22;52812;48.960;9.108;2024-03-08T15:50:38;9.60;99.90
3086;DHT22;52812;48.960;9.108;2024-03-08T15:53:04;9.50;99.90
3086;DHT22;52812;48.960;9.108;2024-03-08T15:55:30;9.60;99.90
3086;DHT22;52812;48.960;9.108;2024-03-08T15:57:57;9.60;99.90
3086;DHT22;52812;48.960;9.108;2024-03-08T16:00:26;9.60;99.90
3086;DHT22;52812;48.960;9.108;2024-03-08T16:03:10;9.60;99.90
3086;DHT22;52812;48.960;9.108;2024-03-08T16:05:47;9.60;99.90
3086;DHT22;52812;48.960;9.108;2024-03-08T16:08:15;9.60;99.90
3086;DHT22;52812;48.960;9.108;2024-03-08T16:10:45;9.60;99.90